sensor_id;sensor_type;location;lat;lon;timestamp;temperature;humidity
39347;DHT22;26262;49.836;6.632;2022-07-10T00:01:51;14.50;99.90
39347;DHT22;26262;49.836;6.632;2022-07-10T00:04:16;14.60;99.90
39347;DHT22;26262;49.836;6.632;2022-07-10T00:06:44;14.60;99.90
39347;DHT22;26262;49.836;6.632;2022-07-10T00:09:12;14.60;99.90
39347;DHT22;26262;49.836;6.632;2022-07-10T00:11:38;14.70;99.90
39347;DHT22;26262;49.836;6.632;2022-07-10T00:14:03;14.70;99.90
39347;DHT22;26262;49.836;6.632;2022-07-10T00:16:29;14.50;99.90
39347;DHT22;26262;49.836;6.632;2022-07-10T00:18:54;14.30;99.90
39347;DHT22;26262;49.836;6.632;2022-07-10T00:21:20;14.40;99.90
39347;DHT22;26262;49.836;6.632;2022-07-10T00:23:46;14.30;99.90
39347;DHT22;26262;49.836;6.632;2022-07-10T00:26:11;14.00;99.90
39347;DHT22;26262;49.836;6.632;2022-07-10T00:28:37;14.30;99.90
39347;DHT22;26262;49.836;6.632;2022-07-10T00:31:02;14.40;99.90
39347;DHT22;26262;49.836;6.632;2022-07-10T00:33:28;14.40;99.90
39347;DHT22;26262;49.836;6.632;2022-07-10T00:35:56;14.10;99.90
39347;DHT22;26262;49.836;6.632;2022-07-10T00:38:21;14.00;99.90
39347;DHT22;26262;49.836;6.632;2022-07-10T00:40:47;14.20;99.90
39347;DHT22;26262;49.836;6.632;2022-07-10T00:43:12;14.30;99.90
39347;DHT22;26262;49.836;6.632;2022-07-10T00:45:38;14.20;99.90
39347;DHT22;26262;49.836;6.632;2022-07-10T00:48:03;14.10;99.90
39347;DHT22;26262;49.836;6.632;2022-07-10T00:50:29;14.10;99.90
39347;DHT22;26262;49.836;6.632;2022-07-10T00:52:55;13.80;99.90
39347;DHT22;26262;49.836;6.632;2022-07-10T00:55:21;14.00;99.90
39347;DHT22;26262;49.836;6.632;2022-07-10T00:57:47;14.10;99.90
39347;DHT22;26262;49.836;6.632;2022-07-10T01:00:13;14.30;99.90
39347;DHT22;26262;49.836;6.632;2022-07-10T01:02:43;14.30;99.90
39347;DHT22;26262;49.836;6.632;2022-07-10T01:05:09;14.20;99.90
39347;DHT22;26262;49.836;6.632;2022-07-10T01:07:34;13.80;99.90
39347;DHT22;26262;49.836;6.632;2022-07-10T01:10:00;13.90;99.90
39347;DHT22;26262;49.836;6.632;2022-07-10T01:12:27;14.00;99.90
39347;DHT22;26262;49.836;6.632;2022-07-10T01:14:54;14.00;99.90
39347;DHT22;26262;49.836;6.632;2022-07-10T01:17:20;13.90;99.90
39347;DHT22;26262;49.836;6.632;2022-07-10T01:19:45;13.90;99.90
39347;DHT22;26262;49.836;6.632;2022-07-10T01:22:11;14.00;99.90
39347;DHT22;26262;49.836;6.632;2022-07-10T01:24:36;14.00;99.90
39347;DHT22;26262;49.836;6.632;2022-07-10T01:27:02;13.90;99.90
39347;DHT22;26262;49.836;6.632;2022-07-10T01:29:29;13.80;99.90
39347;DHT22;26262;49.836;6.632;2022-07-10T01:31:55;13.70;99.90
39347;DHT22;26262;49.836;6.632;2022-07-10T01:34:20;13.70;99.90
39347;DHT22;26262;49.836;6.632;2022-07-10T01:36:46;13.90;99.90
39347;DHT22;26262;49.836;6.632;2022-07-10T01:39:12;13.80;99.90
39347;DHT22;26262;49.836;6.632;2022-07-10T01:41:38;13.90;99.90
39347;DHT22;26262;49.836;6.632;2022-07-10T01:44:03;14.00;99.90
39347;DHT22;26262;49.836;6.632;2022-07-10T01:46:29;13.90;99.90
39347;DHT22;26262;49.836;6.632;2022-07-10T01:48:55;13.80;99.90
39347;DHT22;26262;49.836;6.632;2022-07-10T01:51:20;14.00;99.90
39347;DHT22;26262;49.836;6.632;2022-07-10T01:53:46;14.00;99.90
39347;DHT22;26262;49.836;6.632;2022-07-10T01:56:13;13.90;99.90
39347;DHT22;26262;49.836;6.632;2022-07-10T01:58:39;13.90;99.90
39347;DHT22;26262;49.836;6.632;2022-07-10T02:01:05;13.90;99.90
39347;DHT22;26262;49.836;6.632;2022-07-10T02:03:31;13.90;99.90
39347;DHT22;26262;49.836;6.632;2022-07-10T02:06:15;13.80;99.90
39347;DHT22;26262;49.836;6.632;2022-07-10T02:08:41;13.80;99.90
39347;DHT22;26262;49.836;6.632;2022-07-10T02:11:06;13.70;99.90
39347;DHT22;26262;49.836;6.632;2022-07-10T02:13:32;13.70;99.90
39347;DHT22;26262;49.836;6.632;2022-07-10T02:15:57;13.70;99.90
39347;DHT22;26262;49.836;6.632;2022-07-10T02:18:23;13.70;99.90
39347;DHT22;26262;49.836;6.632;2022-07-10T02:20:50;13.70;99.90
39347;DHT22;26262;49.836;6.632;2022-07-10T02:23:16;13.70;99.90
39347;DHT22;26262;49.836;6.632;2022-07-10T02:25:41;13.80;99.90
39347;DHT22;26262;49.836;6.632;2022-07-10T02:28:08;13.70;99.90
39347;DHT22;26262;49.836;6.632;2022-07-10T02:30:33;13.60;99.90
39347;DHT22;26262;49.836;6.632;2022-07-10T02:32:59;13.50;99.90
39347;DHT22;26262;49.836;6.632;2022-07-10T02:35:25;13.40;99.90
39347;DHT22;26262;49.836;6.632;2022-07-10T02:37:50;13.40;99.90
39347;DHT22;26262;49.836;6.632;2022-07-10T02:40:16;13.40;99.90
39347;DHT22;26262;49.836;6.632;2022-07-10T02:42:41;13.50;99.90
39347;DHT22;26262;49.836;6.632;2022-07-10T02:45:07;13.40;99.90
39347;DHT22;26262;49.836;6.632;2022-07-10T02:47:33;13.50;99.90
39347;DHT22;26262;49.836;6.632;2022-07-10T02:49:59;13.30;99.90
39347;DHT22;26262;49.836;6.632;2022-07-10T02:52:24;13.20;99.90
39347;DHT22;26262;49.836;6.632;2022-07-10T02:54:50;13.20;99.90
39347;DHT22;26262;49.836;6.632;2022-07-10T02:57:16;12.80;99.90
39347;DHT22;26262;49.836;6.632;2022-07-10T02:59:42;12.70;99.90
39347;DHT22;26262;49.836;6.632;2022-07-10T03:02:07;12.70;99.90
39347;DHT22;26262;49.836;6.632;2022-07-10T03:04:33;12.70;99.90
39347;DHT22;26262;49.836;6.632;2022-07-10T03:06:58;12.90;99.90
39347;DHT22;26262;49.836;6.632;2022-07-10T03:09:24;12.90;99.90
39347;DHT22;26262;49.836;6.632;2022-07-10T03:11:51;12.90;99.90
39347;DHT22;26262;49.836;6.632;2022-07-10T03:14:16;12.90;99.90
39347;DHT22;26262;49.836;6.632;2022-07-10T03:16:42;13.00;99.90
39347;DHT22;26262;49.836;6.632;2022-07-10T03:19:08;13.00;99.90
39347;DHT22;26262;49.836;6.632;2022-07-10T03:21:34;13.10;99.90
39347;DHT22;26262;49.836;6.632;2022-07-10T03:23:59;13.00;99.90
39347;DHT22;26262;49.836;6.632;2022-07-10T03:26:25;13.10;99.90
39347;DHT22;26262;49.836;6.632;2022-07-10T03:28:51;13.10;99.90
39347;DHT22;26262;49.836;6.632;2022-07-10T03:31:17;13.00;99.90
39347;DHT22;26262;49.836;6.632;2022-07-10T03:33:43;13.00;99.90
39347;DHT22;26262;49.836;6.632;2022-07-10T03:36:08;12.50;99.90
39347;DHT22;26262;49.836;6.632;2022-07-10T03:38:34;12.50;99.90
39347;DHT22;26262;49.836;6.632;2022-07-10T03:40:59;12.60;99.90
39347;DHT22;26262;49.836;6.632;2022-07-10T03:43:25;12.50;99.90
39347;DHT22;26262;49.836;6.632;2022-07-10T03:45:51;12.60;99.90
39347;DHT22;26262;49.836;6.632;2022-07-10T03:48:16;12.60;99.90
39347;DHT22;26262;49.836;6.632;2022-07-10T03:50:42;12.70;99.90
39347;DHT22;26262;49.836;6.632;2022-07-10T03:53:08;12.70;99.90
39347;DHT22;26262;49.836;6.632;2022-07-10T03:55:33;12.60;99.90
39347;DHT22;26262;49.836;6.632;2022-07-10T03:57:58;12.70;99.90
39347;DHT22;26262;49.836;6.632;2022-07-10T04:00:29;12.70;99.90
39347;DHT22;26262;49.836;6.632;2022-07-10T04:03:00;12.80;99.90
39347;DHT22;26262;49.836;6.632;2022-07-10T04:05:27;12.80;99.90
39347;DHT22;26262;49.836;6.632;2022-07-10T04:07:53;12.70;99.90
39347;DHT22;26262;49.836;6.632;2022-07-10T04:10:20;12.70;99.90
39347;DHT22;26262;49.836;6.632;2022-07-10T04:12:46;12.70;99.90
39347;DHT22;26262;49.836;6.632;2022-07-10T04:15:13;12.70;99.90
39347;DHT22;26262;49.836;6.632;2022-07-10T04:17:38;12.70;99.90
39347;DHT22;26262;49.836;6.632;2022-07-10T04:20:04;12.70;99.90
39347;DHT22;26262;49.836;6.632;2022-07-10T04:22:30;12.70;99.90
39347;DHT22;26262;49.836;6.632;2022-07-10T04:24:56;12.60;99.90
39347;DHT22;26262;49.836;6.632;2022-07-10T04:27:21;12.60;99.90
39347;DHT22;26262;49.836;6.632;2022-07-10T04:29:47;12.50;99.90
39347;DHT22;26262;49.836;6.632;2022-07-10T04:32:14;12.50;99.90
39347;DHT22;26262;49.836;6.632;2022-07-10T04:34:40;12.50;99.90
39347;DHT22;26262;49.836;6.632;2022-07-10T04:37:06;12.50;99.90
39347;DHT22;26262;49.836;6.632;2022-07-10T04:39:38;12.50;99.90
39347;DHT22;26262;49.836;6.632;2022-07-10T04:42:07;12.30;99.90
39347;DHT22;26262;49.836;6.632;2022-07-10T04:44:34;12.40;99.90
39347;DHT22;26262;49.836;6.632;2022-07-10T04:47:00;12.40;99.90
39347;DHT22;26262;49.836;6.632;2022-07-10T04:49:25;12.50;99.90
39347;DHT22;26262;49.836;6.632;2022-07-10T04:51:51;12.40;99.90
39347;DHT22;26262;49.836;6.632;2022-07-10T04:54:17;12.50;99.90
39347;DHT22;26262;49.836;6.632;2022-07-10T04:56:42;12.50;99.90
39347;DHT22;26262;49.836;6.632;2022-07-10T04:59:08;12.50;99.90
39347;DHT22;26262;49.836;6.632;2022-07-10T05:01:34;12.60;99.90
39347;DHT22;26262;49.836;6.632;2022-07-10T05:04:00;12.70;99.90
39347;DHT22;26262;49.836;6.632;2022-07-10T05:06:25;12.70;99.90
39347;DHT22;26262;49.836;6.632;2022-07-10T05:08:51;12.70;99.90
39347;DHT22;26262;49.836;6.632;2022-07-10T05:11:17;12.80;99.90
39347;DHT22;26262;49.836;6.632;2022-07-10T05:13:42;12.90;99.90
39347;DHT22;26262;49.836;6.632;2022-07-10T05:16:14;12.90;99.90
39347;DHT22;26262;49.836;6.632;2022-07-10T05:18:39;13.00;99.90
39347;DHT22;26262;49.836;6.632;2022-07-10T05:21:05;13.10;99.90
39347;DHT22;26262;49.836;6.632;2022-07-10T05:23:31;13.20;99.90
39347;DHT22;26262;49.836;6.632;2022-07-10T05:25:57;13.30;99.90
39347;DHT22;26262;49.836;6.632;2022-07-10T05:28:22;13.30;99.90
39347;DHT22;26262;49.836;6.632;2022-07-10T05:30:48;13.40;99.90
39347;DHT22;26262;49.836;6.632;2022-07-10T05:33:15;13.50;99.90
39347;DHT22;26262;49.836;6.632;2022-07-10T05:35:41;13.60;99.90
39347;DHT22;26262;49.836;6.632;2022-07-10T05:38:07;13.70;99.90
39347;DHT22;26262;49.836;6.632;2022-07-10T05:40:33;13.70;99.90
39347;DHT22;26262;49.836;6.632;2022-07-10T05:42:59;13.80;99.90
39347;DHT22;26262;49.836;6.632;2022-07-10T05:45:24;13.90;99.90
39347;DHT22;26262;49.836;6.632;2022-07-10T05:47:50;14.00;99.90
39347;DHT22;26262;49.836;6.632;2022-07-10T05:50:16;14.00;99.90
39347;DHT22;26262;49.836;6.632;2022-07-10T05:52:41;14.00;99.90
39347;DHT22;26262;49.836;6.632;2022-07-10T05:55:08;14.10;99.90
39347;DHT22;26262;49.836;6.632;2022-07-10T05:57:33;14.20;99.90
39347;DHT22;26262;49.836;6.632;2022-07-10T05:59:59;14.40;99.90
39347;DHT22;26262;49.836;6.632;2022-07-10T06:02:25;14.60;99.90
39347;DHT22;26262;49.836;6.632;2022-07-10T06:04:51;14.70;99.90
39347;DHT22;26262;49.836;6.632;2022-07-10T06:07:16;14.80;99.90
39347;DHT22;26262;49.836;6.632;2022-07-10T06:09:42;14.90;99.90
39347;DHT22;26262;49.836;6.632;2022-07-10T06:12:08;15.00;99.90
39347;DHT22;26262;49.836;6.632;2022-07-10T06:14:33;14.90;99.90
39347;DHT22;26262;49.836;6.632;2022-07-10T06:16:59;14.80;99.90
39347;DHT22;26262;49.836;6.632;2022-07-10T06:19:25;14.70;99.90
39347;DHT22;26262;49.836;6.632;2022-07-10T06:21:50;14.70;99.90
39347;DHT22;26262;49.836;6.632;2022-07-10T06:24:36;14.70;99.90
39347;DHT22;26262;49.836;6.632;2022-07-10T06:27:02;14.90;99.90
39347;DHT22;26262;49.836;6.632;2022-07-10T06:29:27;15.00;99.90
39347;DHT22;26262;49.836;6.632;2022-07-10T06:31:53;15.10;99.90
39347;DHT22;26262;49.836;6.632;2022-07-10T06:34:18;15.20;99.90
39347;DHT22;26262;49.836;6.632;2022-07-10T06:36:45;15.20;99.90
39347;DHT22;26262;49.836;6.632;2022-07-10T06:39:10;15.30;99.90
39347;DHT22;26262;49.836;6.632;2022-07-10T06:41:36;15.40;99.90
39347;DHT22;26262;49.836;6.632;2022-07-10T06:44:01;15.50;99.90
39347;DHT22;26262;49.836;6.632;2022-07-10T06:46:27;15.70;99.90
39347;DHT22;26262;49.836;6.632;2022-07-10T06:48:53;15.80;99.90
39347;DHT22;26262;49.836;6.632;2022-07-10T06:51:19;15.80;99.90
39347;DHT22;26262;49.836;6.632;2022-07-10T06:53:45;15.80;99.90
39347;DHT22;26262;49.836;6.632;2022-07-10T06:56:11;16.00;99.90
39347;DHT22;26262;49.836;6.632;2022-07-10T06:58:37;16.10;99.90
39347;DHT22;26262;49.836;6.632;2022-07-10T07:01:03;16.30;99.90
39347;DHT22;26262;49.836;6.632;2022-07-10T07:03:29;16.30;99.90
39347;DHT22;26262;49.836;6.632;2022-07-10T07:05:54;16.40;99.90
39347;DHT22;26262;49.836;6.632;2022-07-10T07:08:20;16.60;99.90
39347;DHT22;26262;49.836;6.632;2022-07-10T07:10:46;16.60;99.90
39347;DHT22;26262;49.836;6.632;2022-07-10T07:13:11;16.70;99.90
39347;DHT22;26262;49.836;6.632;2022-07-10T07:15:37;16.80;99.90
39347;DHT22;26262;49.836;6.632;2022-07-10T07:18:07;16.90;99.90
39347;DHT22;26262;49.836;6.632;2022-07-10T07:20:34;16.90;99.90
39347;DHT22;26262;49.836;6.632;2022-07-10T07:23:19;17.00;99.70
39347;DHT22;26262;49.836;6.632;2022-07-10T07:25:44;17.20;99.60
39347;DHT22;26262;49.836;6.632;2022-07-10T07:28:14;17.30;99.70
39347;DHT22;26262;49.836;6.632;2022-07-10T07:30:41;17.40;99.10
39347;DHT22;26262;49.836;6.632;2022-07-10T07:33:07;17.50;99.80
39347;DHT22;26262;49.836;6.632;2022-07-10T07:35:33;17.50;98.40
39347;DHT22;26262;49.836;6.632;2022-07-10T07:37:58;17.60;98.70
39347;DHT22;26262;49.836;6.632;2022-07-10T07:40:24;17.70;97.40
39347;DHT22;26262;49.836;6.632;2022-07-10T07:42:51;17.90;98.40
39347;DHT22;26262;49.836;6.632;2022-07-10T07:45:17;18.00;97.10
39347;DHT22;26262;49.836;6.632;2022-07-10T07:47:56;18.10;96.90
39347;DHT22;26262;49.836;6.632;2022-07-10T07:50:27;18.20;96.80
39347;DHT22;26262;49.836;6.632;2022-07-10T07:52:53;18.30;96.30
39347;DHT22;26262;49.836;6.632;2022-07-10T07:55:20;18.40;95.80
39347;DHT22;26262;49.836;6.632;2022-07-10T07:57:46;18.50;95.40
39347;DHT22;26262;49.836;6.632;2022-07-10T08:00:13;18.50;95.90
39347;DHT22;26262;49.836;6.632;2022-07-10T08:02:39;18.60;96.30
39347;DHT22;26262;49.836;6.632;2022-07-10T08:05:05;18.70;95.70
39347;DHT22;26262;49.836;6.632;2022-07-10T08:07:45;18.80;94.70
39347;DHT22;26262;49.836;6.632;2022-07-10T08:10:13;18.90;94.70
39347;DHT22;26262;49.836;6.632;2022-07-10T08:12:40;19.10;94.70
39347;DHT22;26262;49.836;6.632;2022-07-10T08:15:10;19.30;95.40
39347;DHT22;26262;49.836;6.632;2022-07-10T08:17:36;19.40;93.90
39347;DHT22;26262;49.836;6.632;2022-07-10T08:20:04;19.60;94.40
39347;DHT22;26262;49.836;6.632;2022-07-10T08:22:30;19.70;93.80
39347;DHT22;26262;49.836;6.632;2022-07-10T08:24:56;19.90;92.60
39347;DHT22;26262;49.836;6.632;2022-07-10T08:27:22;19.90;92.70
39347;DHT22;26262;49.836;6.632;2022-07-10T08:29:48;19.70;92.70
39347;DHT22;26262;49.836;6.632;2022-07-10T08:32:13;19.50;92.90
39347;DHT22;26262;49.836;6.632;2022-07-10T08:34:39;19.40;93.60
39347;DHT22;26262;49.836;6.632;2022-07-10T08:37:04;19.20;93.40
39347;DHT22;26262;49.836;6.632;2022-07-10T08:39:30;18.90;93.50
39347;DHT22;26262;49.836;6.632;2022-07-10T08:41:57;18.90;93.50
39347;DHT22;26262;49.836;6.632;2022-07-10T08:44:22;18.70;93.30
39347;DHT22;26262;49.836;6.632;2022-07-10T08:46:48;18.80;93.70
39347;DHT22;26262;49.836;6.632;2022-07-10T08:49:16;18.80;93.80
39347;DHT22;26262;49.836;6.632;2022-07-10T08:54:14;19.40;94.50
39347;DHT22;26262;49.836;6.632;2022-07-10T08:56:41;19.60;92.80
39347;DHT22;26262;49.836;6.632;2022-07-10T08:59:07;19.80;92.30
39347;DHT22;26262;49.836;6.632;2022-07-10T09:01:33;19.80;92.10
39347;DHT22;26262;49.836;6.632;2022-07-10T09:03:59;19.80;92.60
39347;DHT22;26262;49.836;6.632;2022-07-10T09:06:28;20.00;92.00
39347;DHT22;26262;49.836;6.632;2022-07-10T09:09:02;20.00;92.20
39347;DHT22;26262;49.836;6.632;2022-07-10T09:11:28;20.10;92.00
39347;DHT22;26262;49.836;6.632;2022-07-10T09:14:00;20.00;90.80
39347;DHT22;26262;49.836;6.632;2022-07-10T09:16:30;20.20;91.20
39347;DHT22;26262;49.836;6.632;2022-07-10T09:18:56;20.10;91.50
39347;DHT22;26262;49.836;6.632;2022-07-10T09:21:23;20.20;91.30
39347;DHT22;26262;49.836;6.632;2022-07-10T09:23:49;20.20;91.30
39347;DHT22;26262;49.836;6.632;2022-07-10T09:26:15;20.00;90.80
39347;DHT22;26262;49.836;6.632;2022-07-10T09:28:40;20.30;91.90
39347;DHT22;26262;49.836;6.632;2022-07-10T09:31:06;20.50;91.60
39347;DHT22;26262;49.836;6.632;2022-07-10T09:33:32;20.40;91.10
39347;DHT22;26262;49.836;6.632;2022-07-10T09:36:10;20.40;91.20
39347;DHT22;26262;49.836;6.632;2022-07-10T09:41:30;20.80;91.40
39347;DHT22;26262;49.836;6.632;2022-07-10T09:44:00;21.00;91.00
39347;DHT22;26262;49.836;6.632;2022-07-10T09:46:37;21.30;91.70
39347;DHT22;26262;49.836;6.632;2022-07-10T09:49:11;21.40;90.00
39347;DHT22;26262;49.836;6.632;2022-07-10T09:51:41;21.50;90.40
39347;DHT22;26262;49.836;6.632;2022-07-10T09:54:08;21.50;89.70
39347;DHT22;26262;49.836;6.632;2022-07-10T09:59:09;21.60;90.00
39347;DHT22;26262;49.836;6.632;2022-07-10T10:01:36;21.50;90.40
39347;DHT22;26262;49.836;6.632;2022-07-10T10:04:04;21.70;90.80
39347;DHT22;26262;49.836;6.632;2022-07-10T10:06:30;21.80;89.90
39347;DHT22;26262;49.836;6.632;2022-07-10T10:08:59;21.90;90.30
39347;DHT22;26262;49.836;6.632;2022-07-10T10:11:29;21.90;90.20
39347;DHT22;26262;49.836;6.632;2022-07-10T10:13:56;22.00;90.50
39347;DHT22;26262;49.836;6.632;2022-07-10T10:16:25;21.80;90.10
39347;DHT22;26262;49.836;6.632;2022-07-10T10:18:52;21.90;91.00
39347;DHT22;26262;49.836;6.632;2022-07-10T10:21:38;21.80;90.80
39347;DHT22;26262;49.836;6.632;2022-07-10T10:24:04;21.40;90.80
39347;DHT22;26262;49.836;6.632;2022-07-10T10:26:32;21.40;91.20
39347;DHT22;26262;49.836;6.632;2022-07-10T10:29:00;21.40;90.60
39347;DHT22;26262;49.836;6.632;2022-07-10T10:31:28;21.40;90.90
39347;DHT22;26262;49.836;6.632;2022-07-10T10:33:54;21.40;90.80
39347;DHT22;26262;49.836;6.632;2022-07-10T10:39:10;21.50;90.30
39347;DHT22;26262;49.836;6.632;2022-07-10T10:41:40;21.50;90.70
39347;DHT22;26262;49.836;6.632;2022-07-10T10:46:32;21.60;90.30
39347;DHT22;26262;49.836;6.632;2022-07-10T10:49:05;21.50;90.50
39347;DHT22;26262;49.836;6.632;2022-07-10T10:52:03;21.60;90.10
39347;DHT22;26262;49.836;6.632;2022-07-10T11:00:02;21.60;90.40
39347;DHT22;26262;49.836;6.632;2022-07-10T11:02:35;21.50;90.30
39347;DHT22;26262;49.836;6.632;2022-07-10T11:07:59;21.50;90.40
39347;DHT22;26262;49.836;6.632;2022-07-10T11:13:09;21.80;89.50
39347;DHT22;26262;49.836;6.632;2022-07-10T11:15:43;22.10;90.30
39347;DHT22;26262;49.836;6.632;2022-07-10T11:18:14;21.80;90.30
39347;DHT22;26262;49.836;6.632;2022-07-10T11:27:06;21.40;90.80
39347;DHT22;26262;49.836;6.632;2022-07-10T11:29:09;21.70;90.20
39347;DHT22;26262;49.836;6.632;2022-07-10T11:31:34;22.00;90.40
39347;DHT22;26262;49.836;6.632;2022-07-10T11:34:05;22.20;89.50
39347;DHT22;26262;49.836;6.632;2022-07-10T11:36:31;22.20;89.10
39347;DHT22;26262;49.836;6.632;2022-07-10T11:39:02;22.10;89.70
39347;DHT22;26262;49.836;6.632;2022-07-10T11:41:28;22.00;88.90
39347;DHT22;26262;49.836;6.632;2022-07-10T11:43:59;22.00;90.20
39347;DHT22;26262;49.836;6.632;2022-07-10T11:46:30;22.10;88.70
39347;DHT22;26262;49.836;6.632;2022-07-10T11:48:57;22.20;89.20
39347;DHT22;26262;49.836;6.632;2022-07-10T11:51:29;22.20;89.40
39347;DHT22;26262;49.836;6.632;2022-07-10T11:54:00;22.20;88.60
39347;DHT22;26262;49.836;6.632;2022-07-10T11:56:28;22.30;88.90
39347;DHT22;26262;49.836;6.632;2022-07-10T12:01:28;21.60;89.30
39347;DHT22;26262;49.836;6.632;2022-07-10T12:03:58;21.60;90.40
39347;DHT22;26262;49.836;6.632;2022-07-10T12:06:25;22.00;90.80
39347;DHT22;26262;49.836;6.632;2022-07-10T12:08:51;22.70;90.00
39347;DHT22;26262;49.836;6.632;2022-07-10T12:11:18;23.10;87.00
39347;DHT22;26262;49.836;6.632;2022-07-10T12:13:44;23.20;86.90
39347;DHT22;26262;49.836;6.632;2022-07-10T12:16:11;23.60;87.80
39347;DHT22;26262;49.836;6.632;2022-07-10T12:18:37;23.80;85.90
39347;DHT22;26262;49.836;6.632;2022-07-10T12:21:03;23.80;86.60
39347;DHT22;26262;49.836;6.632;2022-07-10T12:23:30;23.70;87.30
39347;DHT22;26262;49.836;6.632;2022-07-10T12:25:56;23.30;86.70
39347;DHT22;26262;49.836;6.632;2022-07-10T12:28:22;23.40;87.20
39347;DHT22;26262;49.836;6.632;2022-07-10T12:30:48;23.70;87.10
39347;DHT22;26262;49.836;6.632;2022-07-10T12:33:21;24.00;84.40
39347;DHT22;26262;49.836;6.632;2022-07-10T12:35:58;24.10;84.60
39347;DHT22;26262;49.836;6.632;2022-07-10T12:38:28;24.10;84.30
39347;DHT22;26262;49.836;6.632;2022-07-10T12:41:08;23.70;83.80
39347;DHT22;26262;49.836;6.632;2022-07-10T12:43:35;23.60;84.10
39347;DHT22;26262;49.836;6.632;2022-07-10T12:46:21;23.70;84.90
39347;DHT22;26262;49.836;6.632;2022-07-10T12:49:09;23.60;85.00
39347;DHT22;26262;49.836;6.632;2022-07-10T12:51:47;23.60;84.50
39347;DHT22;26262;49.836;6.632;2022-07-10T12:54:32;23.70;84.90
39347;DHT22;26262;49.836;6.632;2022-07-10T12:56:58;23.50;85.40
39347;DHT22;26262;49.836;6.632;2022-07-10T12:59:27;23.30;85.80
39347;DHT22;26262;49.836;6.632;2022-07-10T13:01:53;23.50;86.20
39347;DHT22;26262;49.836;6.632;2022-07-10T13:04:26;23.80;85.20
39347;DHT22;26262;49.836;6.632;2022-07-10T13:06:52;24.40;83.70
39347;DHT22;26262;49.836;6.632;2022-07-10T13:09:23;24.50;82.30
39347;DHT22;26262;49.836;6.632;2022-07-10T13:11:53;24.70;83.40
39347;DHT22;26262;49.836;6.632;2022-07-10T13:14:19;24.60;81.80
39347;DHT22;26262;49.836;6.632;2022-07-10T13:16:45;24.50;82.00
39347;DHT22;26262;49.836;6.632;2022-07-10T13:19:11;24.50;82.10
39347;DHT22;26262;49.836;6.632;2022-07-10T13:21:37;24.30;83.00
39347;DHT22;26262;49.836;6.632;2022-07-10T13:24:03;24.60;84.00
39347;DHT22;26262;49.836;6.632;2022-07-10T13:26:29;25.10;85.00
39347;DHT22;26262;49.836;6.632;2022-07-10T13:28:56;25.40;80.50
39347;DHT22;26262;49.836;6.632;2022-07-10T13:31:22;25.20;81.40
39347;DHT22;26262;49.836;6.632;2022-07-10T13:33:47;25.10;83.30
39347;DHT22;26262;49.836;6.632;2022-07-10T13:36:13;24.80;82.00
39347;DHT22;26262;49.836;6.632;2022-07-10T13:38:39;24.70;82.10
39347;DHT22;26262;49.836;6.632;2022-07-10T13:41:05;24.50;82.00
39347;DHT22;26262;49.836;6.632;2022-07-10T13:43:30;24.60;82.10
39347;DHT22;26262;49.836;6.632;2022-07-10T13:45:57;24.80;82.50
39347;DHT22;26262;49.836;6.632;2022-07-10T13:48:23;25.30;79.60
39347;DHT22;26262;49.836;6.632;2022-07-10T13:50:48;25.30;80.10
39347;DHT22;26262;49.836;6.632;2022-07-10T13:53:18;24.90;80.40
39347;DHT22;26262;49.836;6.632;2022-07-10T13:55:44;25.30;81.20
39347;DHT22;26262;49.836;6.632;2022-07-10T13:58:10;25.50;80.90
39347;DHT22;26262;49.836;6.632;2022-07-10T14:00:36;25.50;80.30
39347;DHT22;26262;49.836;6.632;2022-07-10T14:03:02;25.50;81.10
39347;DHT22;26262;49.836;6.632;2022-07-10T14:05:28;25.70;78.80
39347;DHT22;26262;49.836;6.632;2022-07-10T14:07:54;25.40;79.80
39347;DHT22;26262;49.836;6.632;2022-07-10T14:10:20;25.40;80.40
39347;DHT22;26262;49.836;6.632;2022-07-10T14:12:48;25.50;80.50
39347;DHT22;26262;49.836;6.632;2022-07-10T14:15:13;25.40;80.20
39347;DHT22;26262;49.836;6.632;2022-07-10T14:17:39;25.30;79.50
39347;DHT22;26262;49.836;6.632;2022-07-10T14:20:05;25.00;79.90
39347;DHT22;26262;49.836;6.632;2022-07-10T14:22:31;24.90;80.40
39347;DHT22;26262;49.836;6.632;2022-07-10T14:24:57;24.80;80.50
39347;DHT22;26262;49.836;6.632;2022-07-10T14:27:23;24.90;80.60
39347;DHT22;26262;49.836;6.632;2022-07-10T14:29:49;25.00;81.20
39347;DHT22;26262;49.836;6.632;2022-07-10T14:32:15;25.00;80.00
39347;DHT22;26262;49.836;6.632;2022-07-10T14:34:41;25.10;80.70
39347;DHT22;26262;49.836;6.632;2022-07-10T14:37:06;25.30;80.50
39347;DHT22;26262;49.836;6.632;2022-07-10T14:39:31;25.50;81.20
39347;DHT22;26262;49.836;6.632;2022-07-10T14:41:57;25.70;80.70
39347;DHT22;26262;49.836;6.632;2022-07-10T14:44:23;25.90;80.70
39347;DHT22;26262;49.836;6.632;2022-07-10T14:46:48;26.10;78.70
39347;DHT22;26262;49.836;6.632;2022-07-10T14:49:14;26.10;78.80
39347;DHT22;26262;49.836;6.632;2022-07-10T14:51:39;26.10;77.90
39347;DHT22;26262;49.836;6.632;2022-07-10T14:54:05;26.20;78.80
39347;DHT22;26262;49.836;6.632;2022-07-10T14:56:30;26.30;78.60
39347;DHT22;26262;49.836;6.632;2022-07-10T14:58:56;26.40;79.50
39347;DHT22;26262;49.836;6.632;2022-07-10T15:01:21;26.30;78.40
39347;DHT22;26262;49.836;6.632;2022-07-10T15:03:47;25.90;79.00
39347;DHT22;26262;49.836;6.632;2022-07-10T15:06:12;25.20;80.80
39347;DHT22;26262;49.836;6.632;2022-07-10T15:08:38;25.20;81.30
39347;DHT22;26262;49.836;6.632;2022-07-10T15:11:04;24.90;81.60
39347;DHT22;26262;49.836;6.632;2022-07-10T15:13:31;24.80;81.80
39347;DHT22;26262;49.836;6.632;2022-07-10T15:15:56;25.20;81.20
39347;DHT22;26262;49.836;6.632;2022-07-10T15:18:22;25.10;79.90
39347;DHT22;26262;49.836;6.632;2022-07-10T15:20:48;25.20;80.70
39347;DHT22;26262;49.836;6.632;2022-07-10T15:23:14;25.20;79.70
39347;DHT22;26262;49.836;6.632;2022-07-10T15:25:40;25.40;80.70
39347;DHT22;26262;49.836;6.632;2022-07-10T15:28:07;25.20;80.20
39347;DHT22;26262;49.836;6.632;2022-07-10T15:30:33;25.10;81.00
39347;DHT22;26262;49.836;6.632;2022-07-10T15:32:59;24.90;81.60
39347;DHT22;26262;49.836;6.632;2022-07-10T15:35:25;24.90;80.80
39347;DHT22;26262;49.836;6.632;2022-07-10T15:37:51;24.90;80.80
39347;DHT22;26262;49.836;6.632;2022-07-10T15:40:16;24.90;81.30
39347;DHT22;26262;49.836;6.632;2022-07-10T15:42:42;24.60;83.10
39347;DHT22;26262;49.836;6.632;2022-07-10T15:45:08;24.50;82.70
39347;DHT22;26262;49.836;6.632;2022-07-10T15:47:33;24.60;82.80
39347;DHT22;26262;49.836;6.632;2022-07-10T15:49:59;24.40;83.00
39347;DHT22;26262;49.836;6.632;2022-07-10T15:52:24;24.30;82.50
39347;DHT22;26262;49.836;6.632;2022-07-10T15:54:50;24.00;84.40
39347;DHT22;26262;49.836;6.632;2022-07-10T15:57:15;24.20;83.20
39347;DHT22;26262;49.836;6.632;2022-07-10T15:59:41;24.20;83.50
39347;DHT22;26262;49.836;6.632;2022-07-10T16:02:08;24.20;83.30